sensor_id;sensor_type;location;lat;lon;timestamp;P1;durP1;ratioP1;P2;durP2;ratioP2
1693;SDS011;844;47.058;15.472;2022-12-01T00:02:17;10.23;;;8.50;;
1693;SDS011;844;47.058;15.472;2022-12-01T00:04:47;9.37;;;8.43;;
1693;SDS011;844;47.058;15.472;2022-12-01T00:07:17;9.83;;;8.80;;
1693;SDS011;844;47.058;15.472;2022-12-01T00:09:47;8.83;;;7.93;;
1693;SDS011;844;47.058;15.472;2022-12-01T00:12:34;9.80;;;8.00;;
1693;SDS011;844;47.058;15.472;2022-12-01T00:15:11;10.37;;;9.37;;
1693;SDS011;844;47.058;15.472;2022-12-01T00:17:42;9.80;;;8.90;;
1693;SDS011;844;47.058;15.472;2022-12-01T00:20:13;11.23;;;10.10;;
1693;SDS011;844;47.058;15.472;2022-12-01T00:22:45;8.90;;;8.00;;
1693;SDS011;844;47.058;15.472;2022-12-01T00:25:17;9.57;;;8.60;;
1693;SDS011;844;47.058;15.472;2022-12-01T00:27:48;9.73;;;8.47;;
1693;SDS011;844;47.058;15.472;2022-12-01T00:30:21;9.67;;;8.70;;
1693;SDS011;844;47.058;15.472;2022-12-01T00:32:51;9.50;;;8.20;;
1693;SDS011;844;47.058;15.472;2022-12-01T00:35:21;9.90;;;8.30;;
1693;SDS011;844;47.058;15.472;2022-12-01T00:37:51;8.90;;;8.00;;
1693;SDS011;844;47.058;15.472;2022-12-01T00:40:21;9.90;;;8.90;;
1693;SDS011;844;47.058;15.472;2022-12-01T00:42:51;8.20;;;7.37;;
1693;SDS011;844;47.058;15.472;2022-12-01T00:45:22;7.97;;;7.27;;
1693;SDS011;844;47.058;15.472;2022-12-01T00:47:52;9.53;;;8.60;;
1693;SDS011;844;47.058;15.472;2022-12-01T00:50:22;10.00;;;9.00;;
1693;SDS011;844;47.058;15.472;2022-12-01T00:52:52;9.90;;;8.63;;
1693;SDS011;844;47.058;15.472;2022-12-01T00:55:23;8.70;;;7.83;;
1693;SDS011;844;47.058;15.472;2022-12-01T00:57:53;8.43;;;7.53;;
1693;SDS011;844;47.058;15.472;2022-12-01T01:03:51;9.07;;;8.13;;
1693;SDS011;844;47.058;15.472;2022-12-01T01:06:22;8.83;;;7.93;;
1693;SDS011;844;47.058;15.472;2022-12-01T01:08:52;10.27;;;8.77;;
1693;SDS011;844;47.058;15.472;2022-12-01T01:11:21;9.90;;;8.90;;
1693;SDS011;844;47.058;15.472;2022-12-01T01:13:51;9.90;;;8.90;;
1693;SDS011;844;47.058;15.472;2022-12-01T01:16:21;10.60;;;9.60;;
1693;SDS011;844;47.058;15.472;2022-12-01T01:18:53;11.10;;;10.00;;
1693;SDS011;844;47.058;15.472;2022-12-01T01:21:24;12.20;;;9.40;;
1693;SDS011;844;47.058;15.472;2022-12-01T01:23:55;11.13;;;9.93;;
1693;SDS011;844;47.058;15.472;2022-12-01T01:26:25;10.83;;;9.80;;
1693;SDS011;844;47.058;15.472;2022-12-01T01:28:57;12.57;;;9.60;;
1693;SDS011;844;47.058;15.472;2022-12-01T01:31:28;11.30;;;10.10;;
1693;SDS011;844;47.058;15.472;2022-12-01T01:34:00;9.60;;;8.70;;
1693;SDS011;844;47.058;15.472;2022-12-01T01:36:32;8.83;;;7.87;;
1693;SDS011;844;47.058;15.472;2022-12-01T01:39:02;10.03;;;9.03;;
1693;SDS011;844;47.058;15.472;2022-12-01T01:41:33;10.87;;;9.77;;
1693;SDS011;844;47.058;15.472;2022-12-01T01:44:02;10.37;;;8.63;;
1693;SDS011;844;47.058;15.472;2022-12-01T01:46:47;9.80;;;8.53;;
1693;SDS011;844;47.058;15.472;2022-12-01T01:49:19;10.60;;;9.50;;
1693;SDS011;844;47.058;15.472;2022-12-01T01:51:49;10.17;;;9.03;;
1693;SDS011;844;47.058;15.472;2022-12-01T01:54:22;10.47;;;9.13;;
1693;SDS011;844;47.058;15.472;2022-12-01T01:56:55;10.47;;;9.30;;
1693;SDS011;844;47.058;15.472;2022-12-01T01:59:27;10.43;;;9.40;;
1693;SDS011;844;47.058;15.472;2022-12-01T02:02:01;9.80;;;8.90;;
1693;SDS011;844;47.058;15.472;2022-12-01T02:04:35;11.90;;;9.60;;
1693;SDS011;844;47.058;15.472;2022-12-01T02:07:08;11.27;;;10.00;;
1693;SDS011;844;47.058;15.472;2022-12-01T02:09:40;11.47;;;9.30;;
1693;SDS011;844;47.058;15.472;2022-12-01T02:12:12;11.10;;;10.00;;
1693;SDS011;844;47.058;15.472;2022-12-01T02:14:56;10.10;;;9.07;;
1693;SDS011;844;47.058;15.472;2022-12-01T02:17:36;11.13;;;9.53;;
1693;SDS011;844;47.058;15.472;2022-12-01T02:26:05;9.67;;;8.83;;
1693;SDS011;844;47.058;15.472;2022-12-01T02:28:50;9.87;;;8.77;;
1693;SDS011;844;47.058;15.472;2022-12-01T02:31:32;8.77;;;7.87;;
1693;SDS011;844;47.058;15.472;2022-12-01T02:34:08;8.37;;;6.40;;
1693;SDS011;844;47.058;15.472;2022-12-01T02:36:42;7.83;;;7.13;;
1693;SDS011;844;47.058;15.472;2022-12-01T02:39:19;6.93;;;6.07;;
1693;SDS011;844;47.058;15.472;2022-12-01T02:41:53;7.00;;;6.30;;
1693;SDS011;844;47.058;15.472;2022-12-01T02:44:31;6.47;;;5.77;;
1693;SDS011;844;47.058;15.472;2022-12-01T02:47:06;7.17;;;6.47;;
1693;SDS011;844;47.058;15.472;2022-12-01T02:49:39;6.43;;;5.80;;
1693;SDS011;844;47.058;15.472;2022-12-01T02:52:12;6.60;;;6.00;;
1693;SDS011;844;47.058;15.472;2022-12-01T02:54:44;5.23;;;4.73;;
1693;SDS011;844;47.058;15.472;2022-12-01T02:57:15;5.77;;;5.27;;
1693;SDS011;844;47.058;15.472;2022-12-01T02:59:46;5.43;;;4.93;;
1693;SDS011;844;47.058;15.472;2022-12-01T03:02:20;7.00;;;5.73;;
1693;SDS011;844;47.058;15.472;2022-12-01T03:04:55;6.50;;;5.90;;
1693;SDS011;844;47.058;15.472;2022-12-01T03:07:38;6.73;;;6.03;;
1693;SDS011;844;47.058;15.472;2022-12-01T03:10:16;7.10;;;4.63;;
1693;SDS011;844;47.058;15.472;2022-12-01T03:12:55;7.40;;;6.63;;
1693;SDS011;844;47.058;15.472;2022-12-01T03:15:31;6.43;;;5.80;;
1693;SDS011;844;47.058;15.472;2022-12-01T03:18:08;6.50;;;5.90;;
1693;SDS011;844;47.058;15.472;2022-12-01T03:20:44;8.30;;;6.07;;
1693;SDS011;844;47.058;15.472;2022-12-01T03:23:17;6.80;;;6.13;;
1693;SDS011;844;47.058;15.472;2022-12-01T03:25:50;6.27;;;5.67;;
1693;SDS011;844;47.058;15.472;2022-12-01T03:28:22;6.23;;;5.57;;
1693;SDS011;844;47.058;15.472;2022-12-01T03:30:57;6.53;;;5.93;;
1693;SDS011;844;47.058;15.472;2022-12-01T03:33:31;7.87;;;5.43;;
1693;SDS011;844;47.058;15.472;2022-12-01T03:36:05;6.10;;;5.60;;
1693;SDS011;844;47.058;15.472;2022-12-01T03:38:36;5.50;;;5.00;;
1693;SDS011;844;47.058;15.472;2022-12-01T03:41:08;5.90;;;5.40;;
1693;SDS011;844;47.058;15.472;2022-12-01T03:43:42;6.17;;;5.53;;
1693;SDS011;844;47.058;15.472;2022-12-01T03:46:16;6.57;;;5.30;;
1693;SDS011;844;47.058;15.472;2022-12-01T03:48:51;6.60;;;5.57;;
1693;SDS011;844;47.058;15.472;2022-12-01T03:51:24;5.43;;;4.60;;
1693;SDS011;844;47.058;15.472;2022-12-01T03:53:58;3.73;;;3.43;;
1693;SDS011;844;47.058;15.472;2022-12-01T03:56:31;6.00;;;5.40;;
1693;SDS011;844;47.058;15.472;2022-12-01T03:59:04;6.50;;;4.93;;
1693;SDS011;844;47.058;15.472;2022-12-01T04:01:34;4.50;;;3.80;;
1693;SDS011;844;47.058;15.472;2022-12-01T04:04:08;5.70;;;4.23;;
1693;SDS011;844;47.058;15.472;2022-12-01T04:06:39;4.47;;;4.07;;
1693;SDS011;844;47.058;15.472;2022-12-01T04:09:10;4.20;;;3.80;;
1693;SDS011;844;47.058;15.472;2022-12-01T04:11:41;5.00;;;4.50;;
1693;SDS011;844;47.058;15.472;2022-12-01T04:14:30;4.67;;;3.83;;
1693;SDS011;844;47.058;15.472;2022-12-01T04:17:01;5.07;;;4.53;;
1693;SDS011;844;47.058;15.472;2022-12-01T04:19:31;5.03;;;4.00;;
1693;SDS011;844;47.058;15.472;2022-12-01T04:22:02;5.50;;;4.60;;
1693;SDS011;844;47.058;15.472;2022-12-01T04:24:32;5.30;;;3.90;;
1693;SDS011;844;47.058;15.472;2022-12-01T04:27:05;5.30;;;4.80;;
1693;SDS011;844;47.058;15.472;2022-12-01T04:29:35;5.23;;;4.73;;
1693;SDS011;844;47.058;15.472;2022-12-01T04:32:06;5.50;;;4.87;;
1693;SDS011;844;47.058;15.472;2022-12-01T04:34:39;5.43;;;4.63;;
1693;SDS011;844;47.058;15.472;2022-12-01T04:37:09;4.77;;;4.27;;
1693;SDS011;844;47.058;15.472;2022-12-01T04:39:39;5.13;;;4.50;;
1693;SDS011;844;47.058;15.472;2022-12-01T04:42:09;5.00;;;4.50;;
1693;SDS011;844;47.058;15.472;2022-12-01T04:44:39;6.33;;;4.30;;
1693;SDS011;844;47.058;15.472;2022-12-01T04:47:09;5.33;;;4.83;;
1693;SDS011;844;47.058;15.472;2022-12-01T04:49:40;5.90;;;4.97;;
1693;SDS011;844;47.058;15.472;2022-12-01T04:52:10;7.93;;;4.93;;
1693;SDS011;844;47.058;15.472;2022-12-01T04:54:40;5.30;;;4.47;;
1693;SDS011;844;47.058;15.472;2022-12-01T04:57:10;5.40;;;4.90;;
1693;SDS011;844;47.058;15.472;2022-12-01T04:59:39;5.53;;;4.60;;
1693;SDS011;844;47.058;15.472;2022-12-01T05:02:13;5.10;;;4.60;;
1693;SDS011;844;47.058;15.472;2022-12-01T05:04:47;5.67;;;4.67;;
1693;SDS011;844;47.058;15.472;2022-12-01T05:07:16;5.20;;;4.70;;
1693;SDS011;844;47.058;15.472;2022-12-01T05:09:48;5.87;;;5.27;;
1693;SDS011;844;47.058;15.472;2022-12-01T05:12:18;5.83;;;5.23;;
1693;SDS011;844;47.058;15.472;2022-12-01T05:14:51;6.17;;;5.07;;
1693;SDS011;844;47.058;15.472;2022-12-01T05:17:21;6.10;;;5.23;;
1693;SDS011;844;47.058;15.472;2022-12-01T05:19:52;4.23;;;3.80;;
1693;SDS011;844;47.058;15.472;2022-12-01T05:22:39;5.23;;;4.50;;
1693;SDS011;844;47.058;15.472;2022-12-01T05:25:29;5.23;;;4.73;;
1693;SDS011;844;47.058;15.472;2022-12-01T05:27:59;4.40;;;4.00;;
1693;SDS011;844;47.058;15.472;2022-12-01T05:30:29;4.53;;;4.10;;
1693;SDS011;844;47.058;15.472;2022-12-01T05:33:02;5.10;;;4.60;;
1693;SDS011;844;47.058;15.472;2022-12-01T05:35:33;7.70;;;5.03;;
1693;SDS011;844;47.058;15.472;2022-12-01T05:38:03;5.37;;;4.77;;
1693;SDS011;844;47.058;15.472;2022-12-01T05:40:34;6.43;;;3.90;;
1693;SDS011;844;47.058;15.472;2022-12-01T05:43:05;5.80;;;4.40;;
1693;SDS011;844;47.058;15.472;2022-12-01T05:45:35;5.17;;;4.67;;
1693;SDS011;844;47.058;15.472;2022-12-01T05:48:05;4.33;;;3.90;;
1693;SDS011;844;47.058;15.472;2022-12-01T05:50:39;4.40;;;4.10;;
1693;SDS011;844;47.058;15.472;2022-12-01T05:53:10;5.07;;;4.67;;
1693;SDS011;844;47.058;15.472;2022-12-01T05:55:50;4.50;;;4.10;;
1693;SDS011;844;47.058;15.472;2022-12-01T05:58:24;4.83;;;4.33;;
1693;SDS011;844;47.058;15.472;2022-12-01T06:00:53;4.40;;;4.00;;
1693;SDS011;844;47.058;15.472;2022-12-01T06:03:24;5.13;;;4.43;;
1693;SDS011;844;47.058;15.472;2022-12-01T06:05:55;4.40;;;4.00;;
1693;SDS011;844;47.058;15.472;2022-12-01T06:08:25;5.57;;;5.00;;
1693;SDS011;844;47.058;15.472;2022-12-01T06:10:55;5.67;;;5.17;;
1693;SDS011;844;47.058;15.472;2022-12-01T06:13:25;5.20;;;4.80;;
1693;SDS011;844;47.058;15.472;2022-12-01T06:15:55;5.33;;;4.70;;
1693;SDS011;844;47.058;15.472;2022-12-01T06:18:26;5.20;;;4.70;;
1693;SDS011;844;47.058;15.472;2022-12-01T06:20:59;5.23;;;4.73;;
1693;SDS011;844;47.058;15.472;2022-12-01T06:23:29;5.37;;;4.87;;
1693;SDS011;844;47.058;15.472;2022-12-01T06:25:58;5.20;;;4.57;;
1693;SDS011;844;47.058;15.472;2022-12-01T06:28:29;5.73;;;5.23;;
1693;SDS011;844;47.058;15.472;2022-12-01T06:30:58;5.83;;;5.27;;
1693;SDS011;844;47.058;15.472;2022-12-01T06:33:29;5.00;;;4.60;;
1693;SDS011;844;47.058;15.472;2022-12-01T06:36:01;6.47;;;5.87;;
1693;SDS011;844;47.058;15.472;2022-12-01T06:38:33;6.90;;;6.20;;
1693;SDS011;844;47.058;15.472;2022-12-01T06:41:04;6.00;;;5.50;;
1693;SDS011;844;47.058;15.472;2022-12-01T06:43:34;4.70;;;4.30;;
1693;SDS011;844;47.058;15.472;2022-12-01T06:46:04;6.00;;;5.50;;
1693;SDS011;844;47.058;15.472;2022-12-01T06:48:35;5.40;;;4.90;;
1693;SDS011;844;47.058;15.472;2022-12-01T06:51:07;6.07;;;5.47;;
1693;SDS011;844;47.058;15.472;2022-12-01T06:53:37;6.33;;;5.73;;
1693;SDS011;844;47.058;15.472;2022-12-01T06:56:08;5.13;;;4.60;;
1693;SDS011;844;47.058;15.472;2022-12-01T06:58:39;7.17;;;6.00;;
1693;SDS011;844;47.058;15.472;2022-12-01T07:01:10;5.70;;;5.20;;
1693;SDS011;844;47.058;15.472;2022-12-01T07:03:41;8.00;;;7.20;;
1693;SDS011;844;47.058;15.472;2022-12-01T07:06:12;10.77;;;9.10;;
1693;SDS011;844;47.058;15.472;2022-12-01T07:08:42;8.03;;;6.87;;
1693;SDS011;844;47.058;15.472;2022-12-01T07:11:12;10.57;;;6.33;;
1693;SDS011;844;47.058;15.472;2022-12-01T07:13:43;6.70;;;6.00;;
1693;SDS011;844;47.058;15.472;2022-12-01T07:16:16;7.53;;;6.83;;
1693;SDS011;844;47.058;15.472;2022-12-01T07:18:46;6.90;;;6.30;;
1693;SDS011;844;47.058;15.472;2022-12-01T07:21:17;6.73;;;5.67;;
1693;SDS011;844;47.058;15.472;2022-12-01T07:23:48;6.67;;;6.07;;
1693;SDS011;844;47.058;15.472;2022-12-01T07:26:18;6.80;;;6.20;;
1693;SDS011;844;47.058;15.472;2022-12-01T07:28:47;6.57;;;5.97;;
1693;SDS011;844;47.058;15.472;2022-12-01T07:31:18;8.00;;;7.20;;
1693;SDS011;844;47.058;15.472;2022-12-01T07:33:49;6.50;;;5.90;;
1693;SDS011;844;47.058;15.472;2022-12-01T07:36:21;6.30;;;5.80;;
1693;SDS011;844;47.058;15.472;2022-12-01T07:38:51;8.17;;;7.37;;
1693;SDS011;844;47.058;15.472;2022-12-01T07:41:21;8.43;;;7.53;;
1693;SDS011;844;47.058;15.472;2022-12-01T07:43:51;7.23;;;6.53;;
1693;SDS011;844;47.058;15.472;2022-12-01T07:46:24;6.10;;;5.60;;
1693;SDS011;844;47.058;15.472;2022-12-01T07:48:57;7.50;;;6.90;;
1693;SDS011;844;47.058;15.472;2022-12-01T07:51:29;8.27;;;6.13;;
1693;SDS011;844;47.058;15.472;2022-12-01T07:54:01;5.93;;;5.33;;
1693;SDS011;844;47.058;15.472;2022-12-01T07:56:32;8.20;;;7.50;;
1693;SDS011;844;47.058;15.472;2022-12-01T07:59:04;7.23;;;6.63;;
1693;SDS011;844;47.058;15.472;2022-12-01T08:01:34;7.10;;;5.83;;
1693;SDS011;844;47.058;15.472;2022-12-01T08:04:10;6.67;;;6.07;;
1693;SDS011;844;47.058;15.472;2022-12-01T08:06:41;6.80;;;6.00;;
1693;SDS011;844;47.058;15.472;2022-12-01T08:09:11;8.03;;;7.23;;
1693;SDS011;844;47.058;15.472;2022-12-01T08:11:41;5.93;;;5.33;;
1693;SDS011;844;47.058;15.472;2022-12-01T08:14:10;7.60;;;6.77;;
1693;SDS011;844;47.058;15.472;2022-12-01T08:16:40;7.93;;;6.93;;
1693;SDS011;844;47.058;15.472;2022-12-01T08:19:10;7.30;;;6.57;;
1693;SDS011;844;47.058;15.472;2022-12-01T08:21:42;8.10;;;7.27;;
1693;SDS011;844;47.058;15.472;2022-12-01T08:24:12;9.70;;;7.57;;
1693;SDS011;844;47.058;15.472;2022-12-01T08:26:41;8.33;;;7.53;;
1693;SDS011;844;47.058;15.472;2022-12-01T08:29:11;8.50;;;7.60;;
1693;SDS011;844;47.058;15.472;2022-12-01T08:31:46;8.10;;;6.90;;
1693;SDS011;844;47.058;15.472;2022-12-01T08:34:16;7.00;;;6.20;;
1693;SDS011;844;47.058;15.472;2022-12-01T08:36:48;6.60;;;6.00;;
1693;SDS011;844;47.058;15.472;2022-12-01T08:39:18;6.53;;;5.83;;
1693;SDS011;844;47.058;15.472;2022-12-01T08:41:48;7.63;;;6.97;;
1693;SDS011;844;47.058;15.472;2022-12-01T08:44:18;8.17;;;7.47;;
1693;SDS011;844;47.058;15.472;2022-12-01T08:46:49;6.53;;;5.93;;
1693;SDS011;844;47.058;15.472;2022-12-01T08:49:18;7.80;;;7.10;;
1693;SDS011;844;47.058;15.472;2022-12-01T08:51:50;7.37;;;6.67;;
1693;SDS011;844;47.058;15.472;2022-12-01T08:54:22;7.97;;;7.20;;
1693;SDS011;844;47.058;15.472;2022-12-01T08:56:52;8.10;;;7.30;;
1693;SDS011;844;47.058;15.472;2022-12-01T08:59:22;7.73;;;7.03;;
1693;SDS011;844;47.058;15.472;2022-12-01T09:01:52;7.83;;;7.00;;
1693;SDS011;844;47.058;15.472;2022-12-01T09:04:28;6.83;;;6.23;;
1693;SDS011;844;47.058;15.472;2022-12-01T09:07:00;7.77;;;7.03;;
1693;SDS011;844;47.058;15.472;2022-12-01T09:09:33;8.10;;;7.30;;
1693;SDS011;844;47.058;15.472;2022-12-01T09:12:04;7.00;;;6.50;;
1693;SDS011;844;47.058;15.472;2022-12-01T09:14:35;8.60;;;7.70;;
1693;SDS011;844;47.058;15.472;2022-12-01T09:17:06;8.93;;;8.03;;
1693;SDS011;844;47.058;15.472;2022-12-01T09:19:37;8.00;;;7.30;;
1693;SDS011;844;47.058;15.472;2022-12-01T09:22:08;7.50;;;6.90;;
1693;SDS011;844;47.058;15.472;2022-12-01T09:24:38;8.57;;;7.77;;
1693;SDS011;844;47.058;15.472;2022-12-01T09:27:08;7.83;;;7.07;;
1693;SDS011;844;47.058;15.472;2022-12-01T09:29:39;7.97;;;7.27;;
1693;SDS011;844;47.058;15.472;2022-12-01T09:32:09;10.00;;;7.07;;
1693;SDS011;844;47.058;15.472;2022-12-01T09:34:40;7.53;;;6.83;;
1693;SDS011;844;47.058;15.472;2022-12-01T09:37:11;8.77;;;7.20;;
1693;SDS011;844;47.058;15.472;2022-12-01T09:39:41;7.40;;;6.80;;
1693;SDS011;844;47.058;15.472;2022-12-01T09:42:12;6.90;;;6.30;;
1693;SDS011;844;47.058;15.472;2022-12-01T09:44:45;6.60;;;6.00;;
1693;SDS011;844;47.058;15.472;2022-12-01T09:47:18;6.47;;;5.90;;
1693;SDS011;844;47.058;15.472;2022-12-01T09:49:54;7.50;;;6.60;;
1693;SDS011;844;47.058;15.472;2022-12-01T09:52:28;6.60;;;5.90;;
1693;SDS011;844;47.058;15.472;2022-12-01T09:55:02;7.47;;;6.77;;
1693;SDS011;844;47.058;15.472;2022-12-01T09:57:35;5.77;;;5.27;;
1693;SDS011;844;47.058;15.472;2022-12-01T10:00:10;5.70;;;5.20;;
1693;SDS011;844;47.058;15.472;2022-12-01T10:02:43;6.43;;;5.77;;
1693;SDS011;844;47.058;15.472;2022-12-01T10:05:18;6.27;;;5.67;;
1693;SDS011;844;47.058;15.472;2022-12-01T10:07:51;6.70;;;6.10;;
1693;SDS011;844;47.058;15.472;2022-12-01T10:10:25;7.37;;;6.67;;
1693;SDS011;844;47.058;15.472;2022-12-01T10:12:56;6.83;;;6.13;;
1693;SDS011;844;47.058;15.472;2022-12-01T10:15:29;5.93;;;5.33;;
1693;SDS011;844;47.058;15.472;2022-12-01T10:18:14;5.70;;;5.27;;
1693;SDS011;844;47.058;15.472;2022-12-01T10:20:49;7.70;;;7.03;;
1693;SDS011;844;47.058;15.472;2022-12-01T10:26:17;5.20;;;4.70;;
1693;SDS011;844;47.058;15.472;2022-12-01T10:28:58;6.27;;;5.77;;
1693;SDS011;844;47.058;15.472;2022-12-01T10:31:51;6.33;;;5.63;;
1693;SDS011;844;47.058;15.472;2022-12-01T10:34:25;6.23;;;5.63;;
1693;SDS011;844;47.058;15.472;2022-12-01T10:36:56;6.50;;;5.90;;
1693;SDS011;844;47.058;15.472;2022-12-01T10:39:28;5.93;;;5.43;;
1693;SDS011;844;47.058;15.472;2022-12-01T10:42:03;7.00;;;6.43;;
1693;SDS011;844;47.058;15.472;2022-12-01T10:44:34;5.63;;;5.13;;
1693;SDS011;844;47.058;15.472;2022-12-01T10:47:04;6.70;;;5.43;;
1693;SDS011;844;47.058;15.472;2022-12-01T10:49:45;6.27;;;5.67;;
1693;SDS011;844;47.058;15.472;2022-12-01T10:52:32;6.27;;;5.77;;
1693;SDS011;844;47.058;15.472;2022-12-01T10:57:55;5.83;;;5.23;;
1693;SDS011;844;47.058;15.472;2022-12-01T11:00:34;6.37;;;5.40;;
1693;SDS011;844;47.058;15.472;2022-12-01T11:03:27;5.53;;;5.03;;
1693;SDS011;844;47.058;15.472;2022-12-01T11:06:01;4.70;;;4.30;;
1693;SDS011;844;47.058;15.472;2022-12-01T11:08:35;5.60;;;5.10;;
1693;SDS011;844;47.058;15.472;2022-12-01T11:11:20;5.97;;;5.33;;
1693;SDS011;844;47.058;15.472;2022-12-01T11:13:53;5.43;;;4.63;;
1693;SDS011;844;47.058;15.472;2022-12-01T11:16:32;6.40;;;5.27;;
1693;SDS011;844;47.058;15.472;2022-12-01T11:19:18;5.90;;;5.27;;
1693;SDS011;844;47.058;15.472;2022-12-01T11:21:54;6.23;;;5.63;;
1693;SDS011;844;47.058;15.472;2022-12-01T11:24:38;6.37;;;5.77;;
1693;SDS011;844;47.058;15.472;2022-12-01T11:27:13;6.00;;;5.43;;
1693;SDS011;844;47.058;15.472;2022-12-01T11:29:45;5.90;;;4.80;;
1693;SDS011;844;47.058;15.472;2022-12-01T11:32:19;8.90;;;6.23;;
1693;SDS011;844;47.058;15.472;2022-12-01T11:34:52;5.70;;;5.17;;
1693;SDS011;844;47.058;15.472;2022-12-01T11:37:24;6.60;;;6.00;;
1693;SDS011;844;47.058;15.472;2022-12-01T11:40:14;6.40;;;5.80;;
1693;SDS011;844;47.058;15.472;2022-12-01T11:42:50;6.77;;;6.17;;
1693;SDS011;844;47.058;15.472;2022-12-01T11:45:22;6.20;;;5.60;;
1693;SDS011;844;47.058;15.472;2022-12-01T11:47:57;6.23;;;5.63;;
1693;SDS011;844;47.058;15.472;2022-12-01T11:50:30;6.37;;;5.77;;
1693;SDS011;844;47.058;15.472;2022-12-01T11:53:01;5.70;;;5.20;;
1693;SDS011;844;47.058;15.472;2022-12-01T11:55:33;6.97;;;6.27;;
1693;SDS011;844;47.058;15.472;2022-12-01T11:58:06;6.77;;;6.17;;
1693;SDS011;844;47.058;15.472;2022-12-01T12:00:39;6.30;;;5.80;;
1693;SDS011;844;47.058;15.472;2022-12-01T12:03:17;6.50;;;6.00;;
1693;SDS011;844;47.058;15.472;2022-12-01T12:05:55;7.17;;;6.47;;
1693;SDS011;844;47.058;15.472;2022-12-01T12:08:54;8.23;;;7.20;;
1693;SDS011;844;47.058;15.472;2022-12-01T12:11:38;7.80;;;6.63;;
1693;SDS011;844;47.058;15.472;2022-12-01T12:14:17;6.57;;;5.97;;
1693;SDS011;844;47.058;15.472;2022-12-01T12:17:00;5.70;;;5.20;;
1693;SDS011;844;47.058;15.472;2022-12-01T12:19:57;7.40;;;6.77;;
1693;SDS011;844;47.058;15.472;2022-12-01T12:22:47;7.27;;;6.57;;
1693;SDS011;844;47.058;15.472;2022-12-01T12:25:26;7.40;;;6.80;;
1693;SDS011;844;47.058;15.472;2022-12-01T12:28:07;7.00;;;6.30;;
1693;SDS011;844;47.058;15.472;2022-12-01T12:30:50;9.43;;;6.53;;
1693;SDS011;844;47.058;15.472;2022-12-01T12:33:31;8.40;;;7.60;;
1693;SDS011;844;47.058;15.472;2022-12-01T12:36:13;7.27;;;6.57;;
1693;SDS011;844;47.058;15.472;2022-12-01T12:38:57;7.53;;;6.93;;
1693;SDS011;844;47.058;15.472;2022-12-01T12:41:39;7.30;;;6.70;;
1693;SDS011;844;47.058;15.472;2022-12-01T12:44:20;8.97;;;7.90;;
1693;SDS011;844;47.058;15.472;2022-12-01T12:47:11;11.23;;;8.63;;
1693;SDS011;844;47.058;15.472;2022-12-01T12:49:52;9.93;;;7.93;;
1693;SDS011;844;47.058;15.472;2022-12-01T12:52:28;8.23;;;6.40;;
1693;SDS011;844;47.058;15.472;2022-12-01T12:55:01;8.40;;;7.03;;
1693;SDS011;844;47.058;15.472;2022-12-01T12:57:43;8.57;;;7.77;;
1693;SDS011;844;47.058;15.472;2022-12-01T13:00:16;7.70;;;6.90;;
1693;SDS011;844;47.058;15.472;2022-12-01T13:02:51;7.23;;;6.57;;
1693;SDS011;844;47.058;15.472;2022-12-01T13:05:26;7.40;;;6.70;;
1693;SDS011;844;47.058;15.472;2022-12-01T13:08:01;8.63;;;7.30;;
1693;SDS011;844;47.058;15.472;2022-12-01T13:10:36;7.83;;;7.07;;
1693;SDS011;844;47.058;15.472;2022-12-01T13:13:12;9.17;;;8.27;;
1693;SDS011;844;47.058;15.472;2022-12-01T13:15:48;8.77;;;7.97;;
1693;SDS011;844;47.058;15.472;2022-12-01T13:18:26;8.03;;;7.33;;
1693;SDS011;844;47.058;15.472;2022-12-01T13:21:02;7.07;;;6.43;;
1693;SDS011;844;47.058;15.472;2022-12-01T13:23:32;8.43;;;7.63;;
1693;SDS011;844;47.058;15.472;2022-12-01T13:26:05;7.00;;;6.33;;
1693;SDS011;844;47.058;15.472;2022-12-01T13:28:39;7.77;;;6.97;;
1693;SDS011;844;47.058;15.472;2022-12-01T13:31:11;8.57;;;7.57;;
1693;SDS011;844;47.058;15.472;2022-12-01T13:33:52;8.60;;;7.80;;
1693;SDS011;844;47.058;15.472;2022-12-01T13:36:23;7.87;;;7.17;;
1693;SDS011;844;47.058;15.472;2022-12-01T13:39:15;7.40;;;6.70;;
1693;SDS011;844;47.058;15.472;2022-12-01T13:42:01;7.83;;;7.10;;
1693;SDS011;844;47.058;15.472;2022-12-01T13:44:36;7.33;;;6.70;;
1693;SDS011;844;47.058;15.472;2022-12-01T13:53:23;8.33;;;7.53;;
1693;SDS011;844;47.058;15.472;2022-12-01T13:55:58;7.33;;;6.67;;
1693;SDS011;844;47.058;15.472;2022-12-01T14:04:29;7.37;;;6.67;;
1693;SDS011;844;47.058;15.472;2022-12-01T14:10:14;6.83;;;6.03;;
1693;SDS011;844;47.058;15.472;2022-12-01T14:12:52;7.80;;;7.10;;
1693;SDS011;844;47.058;15.472;2022-12-01T14:15:32;11.00;;;6.27;;
1693;SDS011;844;47.058;15.472;2022-12-01T14:18:18;6.57;;;5.80;;
1693;SDS011;844;47.058;15.472;2022-12-01T14:21:00;7.37;;;6.67;;
1693;SDS011;844;47.058;15.472;2022-12-01T14:23:34;7.80;;;7.20;;
1693;SDS011;844;47.058;15.472;2022-12-01T14:26:10;6.63;;;6.13;;
1693;SDS011;844;47.058;15.472;2022-12-01T14:35:03;7.97;;;7.17;;
1693;SDS011;844;47.058;15.472;2022-12-01T14:37:43;7.77;;;6.90;;
1693;SDS011;844;47.058;15.472;2022-12-01T14:43:01;7.37;;;6.67;;
1693;SDS011;844;47.058;15.472;2022-12-01T14:45:54;8.73;;;7.57;;
1693;SDS011;844;47.058;15.472;2022-12-01T14:48:31;7.00;;;6.30;;
1693;SDS011;844;47.058;15.472;2022-12-01T14:51:17;6.90;;;6.30;;
1693;SDS011;844;47.058;15.472;2022-12-01T14:53:54;7.17;;;6.50;;
1693;SDS011;844;47.058;15.472;2022-12-01T14:56:25;8.10;;;7.03;;
1693;SDS011;844;47.058;15.472;2022-12-01T14:58:57;8.07;;;7.37;;
1693;SDS011;844;47.058;15.472;2022-12-01T15:01:29;7.53;;;6.80;;
1693;SDS011;844;47.058;15.472;2022-12-01T15:04:00;7.17;;;6.47;;
1693;SDS011;844;47.058;15.472;2022-12-01T15:06:32;7.30;;;6.60;;
1693;SDS011;844;47.058;15.472;2022-12-01T15:09:04;8.13;;;7.33;;
1693;SDS011;844;47.058;15.472;2022-12-01T15:11:58;8.83;;;8.03;;
1693;SDS011;844;47.058;15.472;2022-12-01T15:14:30;8.87;;;8.00;;
1693;SDS011;844;47.058;15.472;2022-12-01T15:17:01;8.70;;;7.87;;
1693;SDS011;844;47.058;15.472;2022-12-01T15:19:34;7.57;;;6.80;;
1693;SDS011;844;47.058;15.472;2022-12-01T15:22:09;7.57;;;6.87;;
1693;SDS011;844;47.058;15.472;2022-12-01T15:24:40;8.77;;;7.87;;
1693;SDS011;844;47.058;15.472;2022-12-01T15:27:24;8.80;;;8.00;;
1693;SDS011;844;47.058;15.472;2022-12-01T15:29:54;8.17;;;7.43;;
1693;SDS011;844;47.058;15.472;2022-12-01T15:32:30;12.67;;;8.20;;
1693;SDS011;844;47.058;15.472;2022-12-01T15:35:18;9.80;;;8.90;;
1693;SDS011;844;47.058;15.472;2022-12-01T15:37:49;10.53;;;8.17;;
1693;SDS011;844;47.058;15.472;2022-12-01T15:40:20;10.43;;;9.43;;
1693;SDS011;844;47.058;15.472;2022-12-01T15:43:17;10.40;;;9.43;;
1693;SDS011;844;47.058;15.472;2022-12-01T15:45:49;19.30;;;8.77;;
1693;SDS011;844;47.058;15.472;2022-12-01T15:48:25;8.90;;;8.10;;
1693;SDS011;844;47.058;15.472;2022-12-01T15:50:59;13.70;;;9.57;;
1693;SDS011;844;47.058;15.472;2022-12-01T15:53:32;9.67;;;8.77;;
1693;SDS011;844;47.058;15.472;2022-12-01T15:56:04;14.10;;;9.77;;
1693;SDS011;844;47.058;15.472;2022-12-01T15:58:39;10.23;;;9.30;;
1693;SDS011;844;47.058;15.472;2022-12-01T16:01:10;10.70;;;9.80;;
1693;SDS011;844;47.058;15.472;2022-12-01T16:03:50;11.63;;;10.10;;
1693;SDS011;844;47.058;15.472;2022-12-01T16:06:24;9.97;;;9.03;;
1693;SDS011;844;47.058;15.472;2022-12-01T16:08:57;8.90;;;8.10;;
1693;SDS011;844;47.058;15.472;2022-12-01T16:11:29;10.03;;;9.00;;
1693;SDS011;844;47.058;15.472;2022-12-01T16:14:02;11.53;;;9.40;;
1693;SDS011;844;47.058;15.472;2022-12-01T16:16:43;12.70;;;11.43;;
1693;SDS011;844;47.058;15.472;2022-12-01T16:19:22;11.53;;;10.43;;
1693;SDS011;844;47.058;15.472;2022-12-01T16:21:58;12.07;;;10.77;;
1693;SDS011;844;47.058;15.472;2022-12-01T16:24:31;12.53;;;11.33;;
1693;SDS011;844;47.058;15.472;2022-12-01T16:27:03;12.00;;;10.77;;
1693;SDS011;844;47.058;15.472;2022-12-01T16:29:41;11.10;;;10.10;;
1693;SDS011;844;47.058;15.472;2022-12-01T16:32:16;11.27;;;10.27;;
1693;SDS011;844;47.058;15.472;2022-12-01T16:34:49;13.70;;;12.40;;